createdAt,value
2022-10-07T00:02:25.591Z,10.21
2022-10-07T00:04:53.057Z,10.29
2022-10-07T00:07:20.882Z,10.30
2022-10-07T00:09:48.294Z,10.29
2022-10-07T00:12:16.033Z,10.30
2022-10-07T00:14:44.365Z,10.31
2022-10-07T00:17:11.795Z,10.29
2022-10-07T00:19:40.884Z,10.32
2022-10-07T00:22:08.383Z,10.29
2022-10-07T00:24:35.921Z,10.30
2022-10-07T00:27:03.390Z,10.31
2022-10-07T00:29:31.243Z,10.28
2022-10-07T00:31:58.698Z,10.28
2022-10-07T00:34:26.253Z,10.32
2022-10-07T00:36:55.123Z,10.29
2022-10-07T00:39:22.554Z,10.34
2022-10-07T00:41:50.776Z,10.29
2022-10-07T00:44:39.506Z,10.32
2022-10-07T00:47:11.613Z,9.70
2022-10-07T00:49:40.709Z,10.37
2022-10-07T00:52:09.536Z,10.39
2022-10-07T00:54:38.233Z,10.41
2022-10-07T00:57:06.345Z,10.34
2022-10-07T00:59:34.453Z,10.35
2022-10-07T01:02:01.910Z,10.34
2022-10-07T01:04:29.419Z,10.45
2022-10-07T01:06:56.960Z,10.29
2022-10-07T01:09:25.835Z,10.23
2022-10-07T01:11:57.233Z,10.24
2022-10-07T01:14:31.461Z,10.19
2022-10-07T01:17:02.115Z,10.25
2022-10-07T01:19:49.407Z,10.25
2022-10-07T01:22:23.041Z,10.14
2022-10-07T01:25:00.985Z,10.20
2022-10-07T01:27:30.773Z,10.22
2022-10-07T01:29:59.633Z,10.18
2022-10-07T01:32:32.100Z,10.21
2022-10-07T01:35:01.281Z,10.16
2022-10-07T01:37:30.460Z,10.15
2022-10-07T01:40:00.275Z,10.22
2022-10-07T01:42:28.137Z,10.18
2022-10-07T01:44:58.826Z,10.11
2022-10-07T01:47:26.732Z,10.12
2022-10-07T01:49:54.080Z,10.15
2022-10-07T01:52:29.274Z,10.11
2022-10-07T01:55:11.926Z,10.15
2022-10-07T01:57:42.499Z,10.07
2022-10-07T02:00:12.588Z,10.06
2022-10-07T02:02:54.783Z,10.08
2022-10-07T02:05:27.413Z,10.07
2022-10-07T02:08:05.634Z,10.09
2022-10-07T02:10:34.976Z,10.07
2022-10-07T02:13:09.027Z,10.09
2022-10-07T02:15:40.669Z,9.94
2022-10-07T02:18:09.388Z,10.06
2022-10-07T02:20:40.605Z,10.03
2022-10-07T02:23:09.567Z,10.03
2022-10-07T02:25:40.138Z,10.02
2022-10-07T02:28:08.497Z,10.04
2022-10-07T02:30:37.614Z,9.97
2022-10-07T02:33:07.824Z,9.94
2022-10-07T02:35:38.652Z,9.94
2022-10-07T02:38:09.883Z,9.94
2022-10-07T02:40:40.925Z,9.91
2022-10-07T02:43:12.124Z,9.90
2022-10-07T02:45:43.108Z,9.87
2022-10-07T02:48:15.831Z,9.88
2022-10-07T02:50:47.380Z,9.91
2022-10-07T02:53:16.133Z,9.90
2022-10-07T02:55:44.204Z,9.88
2022-10-07T02:58:13.228Z,9.92
2022-10-07T03:00:43.588Z,9.90
2022-10-07T03:03:17.229Z,9.98
2022-10-07T03:05:44.836Z,9.90
2022-10-07T03:08:12.677Z,9.90
2022-10-07T03:10:40.675Z,9.87
2022-10-07T03:13:08.286Z,9.81
2022-10-07T03:15:42.072Z,9.84
2022-10-07T03:18:26.101Z,9.79
2022-10-07T03:20:55.988Z,9.83
2022-10-07T03:23:23.588Z,9.83
2022-10-07T03:25:52.716Z,9.85
2022-10-07T03:28:20.608Z,9.81
2022-10-07T03:30:48.145Z,9.78
2022-10-07T03:33:16.016Z,9.74
2022-10-07T03:35:43.441Z,9.78
2022-10-07T03:38:12.896Z,9.80
2022-10-07T03:40:41.197Z,9.84
2022-10-07T03:43:09.396Z,9.85
2022-10-07T03:45:37.373Z,9.91
2022-10-07T03:48:04.988Z,9.80
2022-10-07T03:50:32.490Z,9.81
2022-10-07T03:52:59.923Z,9.77
2022-10-07T03:55:28.703Z,9.80
2022-10-07T03:57:59.710Z,9.82
2022-10-07T04:00:27.947Z,9.82
2022-10-07T04:02:55.471Z,9.78
2022-10-07T04:05:23.161Z,9.77
2022-10-07T04:07:52.097Z,9.75
2022-10-07T04:10:20.278Z,9.77
2022-10-07T04:12:49.768Z,9.76
2022-10-07T04:15:17.266Z,9.74
2022-10-07T04:17:45.943Z,9.79
2022-10-07T04:20:14.522Z,9.76
2022-10-07T04:22:41.954Z,9.81
2022-10-07T04:25:29.491Z,9.73
2022-10-07T04:27:59.933Z,9.74
2022-10-07T04:30:28.350Z,9.77
2022-10-07T04:32:55.983Z,9.78
2022-10-07T04:35:24.168Z,9.76
2022-10-07T04:37:51.945Z,9.79
2022-10-07T04:40:20.374Z,9.75
2022-10-07T04:43:05.265Z,9.73
2022-10-07T04:45:34.336Z,9.75
2022-10-07T04:48:01.826Z,9.73
2022-10-07T04:50:29.310Z,9.77
2022-10-07T04:52:57.202Z,9.72
2022-10-07T04:55:26.483Z,9.79
2022-10-07T04:57:53.907Z,9.71
2022-10-07T05:00:21.308Z,9.65
2022-10-07T05:02:51.262Z,9.66
2022-10-07T05:05:18.999Z,9.76
2022-10-07T05:07:50.495Z,9.80
2022-10-07T05:10:18.046Z,9.73
2022-10-07T05:12:45.770Z,9.81
2022-10-07T05:15:13.647Z,9.78
2022-10-07T05:17:41.545Z,9.79
2022-10-07T05:20:12.365Z,9.84
2022-10-07T05:22:40.390Z,9.83
2022-10-07T05:25:08.187Z,9.83
2022-10-07T05:27:35.951Z,9.90
2022-10-07T05:30:03.737Z,9.92
2022-10-07T05:32:31.406Z,9.92
2022-10-07T05:34:59.008Z,9.94
2022-10-07T05:37:27.820Z,9.98
2022-10-07T05:39:55.242Z,9.99
2022-10-07T05:42:23.048Z,10.04
2022-10-07T05:44:50.729Z,10.03
2022-10-07T05:47:18.889Z,10.06
2022-10-07T05:49:47.122Z,10.10
2022-10-07T05:52:15.009Z,10.09
2022-10-07T05:54:43.889Z,10.18
2022-10-07T05:57:11.402Z,10.14
2022-10-07T05:59:39.249Z,10.14
2022-10-07T06:02:06.789Z,10.22
2022-10-07T06:04:34.341Z,10.20
2022-10-07T06:07:04.082Z,10.20
2022-10-07T06:09:49.099Z,10.27
2022-10-07T06:12:43.636Z,10.27
2022-10-07T06:15:11.354Z,10.27
2022-10-07T06:17:42.704Z,10.28
2022-10-07T06:20:10.744Z,10.26
2022-10-07T06:22:38.635Z,10.34
2022-10-07T06:25:06.647Z,10.35
2022-10-07T06:27:36.088Z,10.37
2022-10-07T06:30:03.966Z,10.42
2022-10-07T06:32:32.695Z,10.51
2022-10-07T06:35:00.142Z,10.52
2022-10-07T06:37:30.570Z,10.53
2022-10-07T06:39:59.718Z,10.52
2022-10-07T06:42:27.404Z,10.54
2022-10-07T06:44:56.255Z,10.65
2022-10-07T06:47:23.780Z,10.64
2022-10-07T06:49:51.904Z,10.68
2022-10-07T06:52:20.261Z,10.74
2022-10-07T06:54:47.689Z,10.77
2022-10-07T06:57:43.672Z,10.87
2022-10-07T07:00:05.106Z,10.95
2022-10-07T07:02:33.777Z,10.99
2022-10-07T07:05:04.532Z,11.03
2022-10-07T07:07:32.043Z,11.08
2022-10-07T07:09:59.474Z,11.06
2022-10-07T07:12:26.864Z,11.10
2022-10-07T07:14:54.319Z,11.18
2022-10-07T07:17:23.146Z,11.24
2022-10-07T07:19:50.595Z,11.24
2022-10-07T07:22:18.070Z,11.24
2022-10-07T07:24:45.667Z,11.34
2022-10-07T07:27:13.204Z,11.33
2022-10-07T07:29:41.524Z,11.40
2022-10-07T07:32:08.917Z,11.46
2022-10-07T07:34:38.635Z,11.50
2022-10-07T07:37:06.154Z,11.48
2022-10-07T07:39:33.989Z,11.60
2022-10-07T07:42:01.412Z,11.18
2022-10-07T07:44:33.986Z,11.65
2022-10-07T07:47:02.587Z,11.72
2022-10-07T07:49:31.925Z,11.89
2022-10-07T07:52:01.217Z,11.82
2022-10-07T07:54:29.139Z,11.74
2022-10-07T07:56:56.683Z,11.78
2022-10-07T07:59:25.168Z,11.88
2022-10-07T08:01:52.667Z,11.94
2022-10-07T08:04:20.087Z,12.07
2022-10-07T08:06:47.611Z,11.96
2022-10-07T08:09:16.397Z,12.10
2022-10-07T08:11:45.200Z,12.25
2022-10-07T08:14:12.788Z,12.35
2022-10-07T08:16:40.657Z,12.31
2022-10-07T08:19:08.134Z,12.39
2022-10-07T08:21:35.668Z,12.41
2022-10-07T08:24:04.342Z,12.41
2022-10-07T08:26:33.945Z,12.54
2022-10-07T08:29:01.594Z,12.53
2022-10-07T08:31:30.006Z,12.16
2022-10-07T08:33:58.732Z,12.76
2022-10-07T08:36:27.007Z,12.84
2022-10-07T08:38:54.909Z,12.94
2022-10-07T08:41:28.374Z,13.16
2022-10-07T08:44:00.949Z,13.27
2022-10-07T08:46:30.219Z,13.38
2022-10-07T08:49:00.123Z,13.45
2022-10-07T08:51:32.429Z,13.57
2022-10-07T08:54:00.107Z,13.49
2022-10-07T08:56:28.800Z,13.64
2022-10-07T08:59:04.690Z,13.78
2022-10-07T09:01:38.292Z,13.76
2022-10-07T09:04:12.001Z,13.78
2022-10-07T09:06:42.293Z,13.78
2022-10-07T09:09:14.218Z,14.05
2022-10-07T09:11:42.914Z,14.07
2022-10-07T09:14:18.956Z,14.12
2022-10-07T09:16:47.445Z,14.16
2022-10-07T09:19:21.704Z,14.32
2022-10-07T09:21:49.692Z,14.15
2022-10-07T09:24:20.045Z,14.15
2022-10-07T09:26:47.564Z,14.33
2022-10-07T09:29:17.415Z,14.26
2022-10-07T09:31:44.998Z,14.27
2022-10-07T09:34:21.422Z,14.03
2022-10-07T09:37:07.584Z,14.05
2022-10-07T09:39:35.181Z,14.08
2022-10-07T09:42:04.841Z,14.03
2022-10-07T09:44:34.084Z,14.02
2022-10-07T09:47:12.878Z,14.10
2022-10-07T09:49:42.098Z,13.82
2022-10-07T09:52:16.809Z,13.97
2022-10-07T09:54:45.352Z,14.06
2022-10-07T09:57:24.488Z,14.08
2022-10-07T09:59:54.775Z,14.19
2022-10-07T10:02:24.075Z,14.45
2022-10-07T10:04:53.063Z,14.58
2022-10-07T10:07:22.074Z,14.64
2022-10-07T10:09:50.497Z,14.90
2022-10-07T10:12:19.362Z,15.03
2022-10-07T10:14:51.527Z,15.05
2022-10-07T10:17:28.420Z,15.15
2022-10-07T10:19:56.620Z,15.09
2022-10-07T10:22:28.047Z,15.26
2022-10-07T10:25:13.748Z,15.09
2022-10-07T10:27:44.678Z,15.52
2022-10-07T10:30:17.752Z,15.63
2022-10-07T10:32:55.668Z,15.83
2022-10-07T10:35:25.803Z,15.90
2022-10-07T10:38:10.940Z,15.92
2022-10-07T10:40:40.916Z,15.73
2022-10-07T10:43:16.599Z,15.84
2022-10-07T10:45:48.690Z,15.70
2022-10-07T10:48:23.933Z,15.84
2022-10-07T10:50:55.133Z,15.95
2022-10-07T10:53:29.411Z,16.05
2022-10-07T10:56:08.645Z,16.20
2022-10-07T10:58:42.832Z,15.95
2022-10-07T11:01:17.958Z,16.21
2022-10-07T11:03:53.820Z,16.22
2022-10-07T11:06:21.319Z,16.31
2022-10-07T11:08:50.890Z,16.19
2022-10-07T11:11:19.252Z,16.15
2022-10-07T11:13:50.374Z,16.27
2022-10-07T11:16:20.361Z,16.21
2022-10-07T11:18:50.448Z,16.47
2022-10-07T11:21:22.982Z,16.33
2022-10-07T11:23:53.836Z,16.56
2022-10-07T11:26:23.727Z,16.54
2022-10-07T11:28:52.215Z,16.49
2022-10-07T11:31:26.956Z,16.65
2022-10-07T11:34:01.522Z,16.67
2022-10-07T11:36:33.658Z,16.43
2022-10-07T11:39:01.639Z,16.55
2022-10-07T11:41:30.969Z,16.72
2022-10-07T11:43:59.719Z,16.68
2022-10-07T11:46:29.696Z,16.65
2022-10-07T11:49:01.230Z,16.77
2022-10-07T11:51:31.188Z,16.95
2022-10-07T11:54:02.992Z,16.73
2022-10-07T11:56:34.208Z,16.92
2022-10-07T11:59:02.517Z,17.02
2022-10-07T12:01:41.874Z,17.04
2022-10-07T12:04:28.117Z,17.03
2022-10-07T12:07:14.563Z,17.15
2022-10-07T12:09:56.119Z,17.33
2022-10-07T12:12:24.307Z,17.28
2022-10-07T12:15:01.415Z,16.67
2022-10-07T12:17:30.250Z,17.03
2022-10-07T12:20:31.061Z,17.31
2022-10-07T12:23:32.149Z,17.48
2022-10-07T12:26:01.437Z,17.06
2022-10-07T12:28:30.688Z,17.11
2022-10-07T12:31:00.108Z,17.34
2022-10-07T12:33:31.772Z,17.13
2022-10-07T12:35:59.315Z,16.80
2022-10-07T12:38:27.816Z,16.32
2022-10-07T12:41:13.050Z,16.56
2022-10-07T12:43:49.618Z,16.34
2022-10-07T12:46:20.734Z,16.83
2022-10-07T12:48:52.546Z,16.87
2022-10-07T12:51:25.889Z,17.21
2022-10-07T12:53:54.224Z,16.83
2022-10-07T12:56:25.566Z,16.84
2022-10-07T12:59:18.817Z,16.84
2022-10-07T13:02:04.522Z,17.40
2022-10-07T13:04:40.739Z,17.22
2022-10-07T13:07:25.775Z,16.94
2022-10-07T13:10:12.520Z,17.17
2022-10-07T13:12:50.976Z,16.80
2022-10-07T13:15:35.266Z,16.98
2022-10-07T13:18:10.633Z,16.93
2022-10-07T13:20:42.972Z,17.03
2022-10-07T13:23:15.100Z,16.82
2022-10-07T13:25:46.783Z,16.79
2022-10-07T13:28:17.524Z,16.68
2022-10-07T13:30:46.042Z,16.78
2022-10-07T13:33:15.596Z,16.66
2022-10-07T13:35:43.080Z,16.58
2022-10-07T13:38:21.109Z,16.56
2022-10-07T13:40:54.085Z,16.33
2022-10-07T13:43:24.550Z,16.41
2022-10-07T13:45:52.478Z,16.45
2022-10-07T13:48:22.146Z,16.24
2022-10-07T13:50:50.531Z,16.24
2022-10-07T13:53:21.046Z,16.11
2022-10-07T13:55:49.077Z,16.23
2022-10-07T13:58:16.789Z,16.27
2022-10-07T14:00:47.130Z,16.48
2022-10-07T14:03:15.515Z,16.67
2022-10-07T14:05:49.001Z,16.56
2022-10-07T14:08:21.274Z,16.65
2022-10-07T14:10:51.793Z,16.78
2022-10-07T14:13:19.497Z,16.87
2022-10-07T14:15:50.696Z,16.91
2022-10-07T14:18:18.567Z,16.74
2022-10-07T14:20:50.371Z,16.72
2022-10-07T14:23:21.787Z,16.89
2022-10-07T14:25:54.419Z,16.85
2022-10-07T14:28:28.899Z,16.86
2022-10-07T14:31:40.961Z,16.83
2022-10-07T14:34:33.976Z,16.78
2022-10-07T14:37:02.371Z,16.83
2022-10-07T14:39:32.606Z,16.74
2022-10-07T14:42:02.514Z,16.87
2022-10-07T14:44:31.069Z,16.83
2022-10-07T14:47:10.082Z,16.92
2022-10-07T14:49:40.980Z,16.88
2022-10-07T14:52:11.883Z,17.06
2022-10-07T14:54:39.979Z,16.95
2022-10-07T14:57:07.445Z,17.02
2022-10-07T14:59:35.673Z,17.08
2022-10-07T15:02:03.118Z,17.04
2022-10-07T15:04:30.755Z,16.91
2022-10-07T15:06:59.839Z,17.06
2022-10-07T15:09:27.533Z,16.91
2022-10-07T15:11:56.136Z,16.83
2022-10-07T15:14:23.708Z,16.78
2022-10-07T15:16:51.352Z,16.89
2022-10-07T15:19:19.156Z,16.58
2022-10-07T15:21:46.684Z,16.65
2022-10-07T15:24:16.073Z,16.63
2022-10-07T15:26:43.531Z,16.59
2022-10-07T15:29:14.007Z,16.66
2022-10-07T15:31:42.926Z,16.70
2022-10-07T15:34:10.459Z,16.70
2022-10-07T15:36:37.941Z,16.62
2022-10-07T15:39:05.504Z,16.56
2022-10-07T15:41:35.397Z,16.53
2022-10-07T15:44:03.785Z,16.33
2022-10-07T15:46:32.055Z,16.28
2022-10-07T15:49:00.163Z,16.32
2022-10-07T15:51:29.367Z,16.19
2022-10-07T15:53:56.871Z,16.23
2022-10-07T15:56:25.336Z,16.22
2022-10-07T15:58:54.251Z,16.33
2022-10-07T16:01:22.068Z,16.04
2022-10-07T16:03:50.303Z,16.06
2022-10-07T16:06:20.646Z,16.11
2022-10-07T16:08:48.737Z,16.25
2022-10-07T16:11:16.803Z,16.09
2022-10-07T16:13:45.548Z,15.98
2022-10-07T16:16:15.451Z,16.10
2022-10-07T16:18:43.927Z,16.23
2022-10-07T16:21:13.043Z,15.66
2022-10-07T16:23:45.699Z,15.80
2022-10-07T16:26:14.104Z,15.78
2022-10-07T16:28:59.864Z,15.65
2022-10-07T16:31:29.073Z,15.64
2022-10-07T16:33:56.784Z,15.64
2022-10-07T16:36:25.810Z,15.71
2022-10-07T16:38:54.226Z,15.67
2022-10-07T16:41:22.222Z,15.85
2022-10-07T16:43:49.892Z,15.59
2022-10-07T16:46:19.257Z,15.48
2022-10-07T16:48:52.395Z,15.57
2022-10-07T16:51:20.989Z,15.41
2022-10-07T16:53:49.844Z,15.48
2022-10-07T16:56:18.333Z,15.39
2022-10-07T16:58:46.905Z,15.33
2022-10-07T17:01:15.486Z,15.46
2022-10-07T17:03:43.988Z,15.41
2022-10-07T17:06:14.063Z,15.20
2022-10-07T17:08:46.200Z,15.32
2022-10-07T17:11:28.592Z,15.31
2022-10-07T17:13:56.080Z,15.03
2022-10-07T17:16:24.254Z,14.96
2022-10-07T17:18:52.192Z,15.08
2022-10-07T17:21:21.167Z,14.91
2022-10-07T17:23:48.757Z,14.93
2022-10-07T17:26:16.393Z,14.95
2022-10-07T17:28:44.008Z,14.43
2022-10-07T17:31:12.260Z,14.93
2022-10-07T17:33:40.475Z,14.85
2022-10-07T17:36:08.827Z,14.75
2022-10-07T17:38:41.248Z,14.73
2022-10-07T17:41:12.361Z,14.72
2022-10-07T17:43:42.008Z,14.65
2022-10-07T17:46:12.806Z,14.64
2022-10-07T17:48:42.871Z,14.66
2022-10-07T17:51:10.606Z,14.72
2022-10-07T17:53:39.728Z,14.77
2022-10-07T17:56:10.048Z,14.72
2022-10-07T17:58:38.729Z,14.70
2022-10-07T18:01:07.590Z,14.92
2022-10-07T18:03:35.535Z,14.85
2022-10-07T18:06:03.664Z,14.93
2022-10-07T18:08:31.403Z,14.88
2022-10-07T18:10:58.999Z,14.85
2022-10-07T18:13:45.263Z,14.64
2022-10-07T18:16:14.009Z,14.69
2022-10-07T18:18:41.685Z,14.63
2022-10-07T18:21:09.585Z,14.56
2022-10-07T18:23:37.164Z,14.57
2022-10-07T18:26:05.890Z,14.64
2022-10-07T18:28:35.975Z,14.66
2022-10-07T18:31:07.021Z,14.62
2022-10-07T18:33:38.427Z,14.70
2022-10-07T18:36:07.547Z,14.56
2022-10-07T18:38:36.232Z,14.51
2022-10-07T18:41:04.639Z,14.60
2022-10-07T18:43:32.677Z,14.52
2022-10-07T18:46:05.500Z,14.58
2022-10-07T18:48:33.548Z,14.58
2022-10-07T18:51:01.135Z,14.50
2022-10-07T18:53:31.494Z,14.43
2022-10-07T18:56:00.423Z,14.37
2022-10-07T18:58:27.983Z,14.32
2022-10-07T19:00:55.496Z,14.30
2022-10-07T19:03:24.547Z,14.27
2022-10-07T19:05:52.084Z,14.28
2022-10-07T19:08:19.589Z,14.29
2022-10-07T19:10:46.972Z,14.12
2022-10-07T19:13:32.718Z,14.08
2022-10-07T19:16:02.764Z,13.99
2022-10-07T19:18:33.610Z,13.90
2022-10-07T19:21:02.931Z,13.88
2022-10-07T19:23:30.361Z,13.97
2022-10-07T19:25:58.176Z,13.99
2022-10-07T19:28:26.237Z,13.79
2022-10-07T19:30:54.997Z,13.77
2022-10-07T19:33:23.996Z,13.79
2022-10-07T19:35:55.548Z,13.78
2022-10-07T19:38:24.421Z,13.65
2022-10-07T19:40:54.964Z,13.75
2022-10-07T19:43:22.598Z,13.75
2022-10-07T19:45:51.182Z,13.76
2022-10-07T19:48:18.599Z,13.68
2022-10-07T19:50:46.708Z,13.67
2022-10-07T19:53:16.820Z,13.56
2022-10-07T19:55:45.266Z,13.60
2022-10-07T19:58:12.721Z,13.48
2022-10-07T20:00:40.599Z,13.52
2022-10-07T20:03:08.079Z,13.44
2022-10-07T20:05:40.646Z,13.43
2022-10-07T20:08:10.179Z,13.35
2022-10-07T20:10:39.606Z,13.48
2022-10-07T20:13:07.006Z,13.51
2022-10-07T20:15:34.472Z,13.32
2022-10-07T20:18:02.480Z,13.24
2022-10-07T20:20:29.892Z,13.36
2022-10-07T20:22:57.334Z,13.43
2022-10-07T20:25:25.508Z,13.48
2022-10-07T20:27:54.352Z,13.38
2022-10-07T20:30:21.874Z,13.17
2022-10-07T20:32:49.670Z,13.23
2022-10-07T20:35:17.485Z,13.15
2022-10-07T20:37:44.982Z,13.25
2022-10-07T20:40:30.119Z,13.10
2022-10-07T20:43:00.487Z,13.03
2022-10-07T20:45:27.961Z,12.62
2022-10-07T20:47:59.503Z,13.03
2022-10-07T20:50:26.929Z,13.07
2022-10-07T20:52:54.411Z,12.98
2022-10-07T20:55:22.131Z,12.99
2022-10-07T20:57:49.970Z,13.06
2022-10-07T21:00:19.000Z,13.01
2022-10-07T21:02:46.909Z,12.99
2022-10-07T21:05:14.689Z,13.00
2022-10-07T21:07:42.839Z,12.98
2022-10-07T21:10:10.309Z,13.02
2022-10-07T21:12:40.495Z,12.94
2022-10-07T21:15:08.267Z,12.97
2022-10-07T21:17:37.625Z,12.89
2022-10-07T21:20:07.181Z,12.90
2022-10-07T21:22:35.109Z,12.97
2022-10-07T21:25:02.563Z,12.88
2022-10-07T21:27:30.215Z,12.89
2022-10-07T21:29:57.613Z,12.79
2022-10-07T21:32:25.155Z,12.94
2022-10-07T21:34:54.035Z,12.82
2022-10-07T21:37:21.474Z,12.88
2022-10-07T21:39:48.918Z,12.86
2022-10-07T21:42:16.985Z,12.88
2022-10-07T21:44:47.358Z,12.94
2022-10-07T21:47:14.877Z,12.97
2022-10-07T21:49:42.291Z,12.95
2022-10-07T21:52:11.236Z,13.04
2022-10-07T21:54:39.055Z,13.08
2022-10-07T21:57:06.544Z,13.01
2022-10-07T21:59:35.215Z,13.11
2022-10-07T22:02:02.834Z,13.02
2022-10-07T22:04:30.830Z,13.04
2022-10-07T22:07:15.587Z,13.07
2022-10-07T22:09:44.419Z,13.05
2022-10-07T22:12:15.656Z,13.20
2022-10-07T22:14:43.305Z,13.09
2022-10-07T22:17:12.036Z,13.12
2022-10-07T22:19:39.917Z,13.26
2022-10-07T22:22:07.695Z,13.14
2022-10-07T22:24:35.289Z,13.12
2022-10-07T22:27:04.446Z,13.18
2022-10-07T22:29:31.897Z,13.21
2022-10-07T22:31:59.316Z,13.16
2022-10-07T22:34:44.072Z,13.05
2022-10-07T22:37:11.737Z,13.02
2022-10-07T22:39:39.815Z,13.04
2022-10-07T22:42:08.670Z,13.23
2022-10-07T22:44:36.158Z,13.18
2022-10-07T22:47:03.894Z,13.13
2022-10-07T22:49:31.323Z,13.12
2022-10-07T22:51:59.678Z,13.26
2022-10-07T22:54:27.810Z,13.25
2022-10-07T22:56:55.564Z,13.19
2022-10-07T22:59:24.549Z,13.19
2022-10-07T23:01:52.442Z,13.17
2022-10-07T23:04:21.533Z,13.32
2022-10-07T23:06:49.204Z,13.33
2022-10-07T23:09:16.645Z,13.28
2022-10-07T23:11:44.055Z,13.28
2022-10-07T23:14:11.973Z,13.29
2022-10-07T23:16:42.024Z,13.36
2022-10-07T23:19:10.062Z,13.29
2022-10-07T23:21:37.698Z,13.25
2022-10-07T23:24:08.192Z,13.25
2022-10-07T23:26:36.321Z,13.14
2022-10-07T23:29:04.098Z,13.09
2022-10-07T23:31:32.867Z,13.02
2022-10-07T23:34:02.903Z,12.91
2022-10-07T23:36:30.784Z,12.94
2022-10-07T23:38:59.556Z,12.98
2022-10-07T23:41:28.047Z,13.11
2022-10-07T23:43:56.123Z,12.98
2022-10-07T23:46:24.627Z,13.14
2022-10-07T23:48:52.218Z,12.93
2022-10-07T23:51:22.412Z,13.02
2022-10-07T23:53:49.861Z,12.88
2022-10-07T23:56:18.537Z,12.97
2022-10-07T23:58:46.317Z,12.92
